createdAt,value
2018-06-21T00:02:21.647Z,3.60
2018-06-21T00:04:50.081Z,3.17
2018-06-21T00:07:18.540Z,3.52
2018-06-21T00:09:46.952Z,3.00
2018-06-21T00:12:15.100Z,2.75
2018-06-21T00:14:43.568Z,3.20
2018-06-21T00:17:12.029Z,3.15
2018-06-21T00:19:40.460Z,3.15
2018-06-21T00:22:08.905Z,3.30
2018-06-21T00:24:37.325Z,3.25
2018-06-21T00:27:05.989Z,3.58
2018-06-21T00:29:34.409Z,2.72
2018-06-21T00:32:02.846Z,3.22
2018-06-21T00:34:30.969Z,2.95
2018-06-21T00:36:59.461Z,3.33
2018-06-21T00:39:27.888Z,2.80
2018-06-21T00:41:56.434Z,3.27
2018-06-21T00:44:24.833Z,3.17
2018-06-21T00:46:53.278Z,2.70
2018-06-21T00:49:21.693Z,2.72
2018-06-21T00:51:50.144Z,3.20
2018-06-21T00:54:18.596Z,3.20
2018-06-21T00:56:47.038Z,3.02
2018-06-21T00:59:15.492Z,3.00
2018-06-21T01:01:43.965Z,2.42
2018-06-21T01:04:12.410Z,3.70
2018-06-21T01:06:40.847Z,3.12
2018-06-21T01:09:09.333Z,3.45
2018-06-21T01:11:37.781Z,3.25
2018-06-21T01:14:06.237Z,3.27
2018-06-21T01:16:34.685Z,2.90
2018-06-21T01:19:03.135Z,2.92
2018-06-21T01:21:32.445Z,2.85
2018-06-21T01:24:00.877Z,3.02
2018-06-21T01:26:29.015Z,2.70
2018-06-21T01:28:57.463Z,2.72
2018-06-21T01:31:25.880Z,2.70
2018-06-21T01:33:54.673Z,2.42
2018-06-21T01:36:23.081Z,2.60
2018-06-21T01:38:51.528Z,2.40
2018-06-21T01:41:19.951Z,2.15
2018-06-21T01:43:48.433Z,2.50
2018-06-21T01:46:16.908Z,2.67
2018-06-21T01:48:45.360Z,2.83
2018-06-21T01:51:13.800Z,2.70
2018-06-21T01:53:42.292Z,3.00
2018-06-21T01:56:10.733Z,2.40
2018-06-21T01:58:39.209Z,2.55
2018-06-21T02:01:07.797Z,2.92
2018-06-21T02:03:36.279Z,2.80
2018-06-21T02:06:04.733Z,3.02
2018-06-21T02:08:33.172Z,2.62
2018-06-21T02:11:01.623Z,2.90
2018-06-21T02:13:30.079Z,2.55
2018-06-21T02:15:58.504Z,2.67
2018-06-21T02:18:26.961Z,2.55
2018-06-21T02:20:55.517Z,2.55
2018-06-21T02:23:23.973Z,2.40
2018-06-21T02:25:54.155Z,2.50
2018-06-21T02:28:22.626Z,3.00
2018-06-21T02:30:51.149Z,2.67
2018-06-21T02:33:19.597Z,2.80
2018-06-21T02:35:48.216Z,2.37
2018-06-21T02:38:16.804Z,2.55
2018-06-21T02:40:45.243Z,2.77
2018-06-21T02:43:13.759Z,2.80
2018-06-21T02:45:42.149Z,2.87
2018-06-21T02:48:10.765Z,2.55
2018-06-21T02:50:38.916Z,2.25
2018-06-21T02:53:07.375Z,2.42
2018-06-21T02:55:35.877Z,2.67
2018-06-21T02:58:04.353Z,3.00
2018-06-21T03:00:32.800Z,2.70
2018-06-21T03:03:01.284Z,2.77
2018-06-21T03:05:29.750Z,2.52
2018-06-21T03:07:58.157Z,2.85
2018-06-21T03:10:26.634Z,2.22
2018-06-21T03:12:55.068Z,2.70
2018-06-21T03:15:23.517Z,2.55
2018-06-21T03:17:51.924Z,2.67
2018-06-21T03:20:20.509Z,2.65
2018-06-21T03:22:49.056Z,2.98
2018-06-21T03:25:17.519Z,2.90
2018-06-21T03:27:45.934Z,3.00
2018-06-21T03:30:14.382Z,2.42
2018-06-21T03:32:42.811Z,2.30
2018-06-21T03:35:11.269Z,2.65
2018-06-21T03:37:39.680Z,2.72
2018-06-21T03:40:08.130Z,2.90
2018-06-21T03:42:36.576Z,2.70
2018-06-21T03:45:05.077Z,2.55
2018-06-21T03:47:33.632Z,2.87
2018-06-21T03:50:02.101Z,2.80
2018-06-21T03:52:30.543Z,2.83
2018-06-21T03:54:58.988Z,2.65
2018-06-21T03:57:27.425Z,2.40
2018-06-21T03:59:55.881Z,2.87
2018-06-21T04:02:24.391Z,2.60
2018-06-21T04:04:52.892Z,2.50
2018-06-21T04:07:21.328Z,2.72
2018-06-21T04:09:49.796Z,2.30
2018-06-21T04:12:18.334Z,2.87
2018-06-21T04:14:46.830Z,2.37
2018-06-21T04:17:15.299Z,2.10
2018-06-21T04:19:43.795Z,2.77
2018-06-21T04:22:12.392Z,2.45
2018-06-21T04:24:40.841Z,2.50
2018-06-21T04:27:09.476Z,3.12
2018-06-21T04:29:37.683Z,2.58
2018-06-21T04:32:06.108Z,2.55
2018-06-21T04:34:34.531Z,2.62
2018-06-21T04:37:02.993Z,2.60
2018-06-21T04:39:31.422Z,2.42
2018-06-21T04:41:59.865Z,2.22
2018-06-21T04:44:28.285Z,4.42
2018-06-21T04:46:56.812Z,3.92
2018-06-21T04:49:25.244Z,4.47
2018-06-21T04:51:53.722Z,4.78
2018-06-21T04:54:22.137Z,3.90
2018-06-21T04:56:50.592Z,3.65
2018-06-21T04:59:19.032Z,2.83
2018-06-21T05:01:47.517Z,2.80
2018-06-21T05:04:16.011Z,2.22
2018-06-21T05:06:44.164Z,2.10
2018-06-21T05:09:13.904Z,2.52
2018-06-21T05:11:42.349Z,2.58
2018-06-21T05:14:10.764Z,2.08
2018-06-21T05:16:39.217Z,2.30
2018-06-21T05:19:07.625Z,1.98
2018-06-21T05:21:36.168Z,2.15
2018-06-21T05:24:04.569Z,2.17
2018-06-21T05:26:33.001Z,1.70
2018-06-21T05:29:01.837Z,2.05
2018-06-21T05:31:30.344Z,2.12
2018-06-21T05:33:59.227Z,1.90
2018-06-21T05:36:27.688Z,1.90
2018-06-21T05:38:56.197Z,2.20
2018-06-21T05:41:24.949Z,2.05
2018-06-21T05:43:53.368Z,1.80
2018-06-21T05:46:21.809Z,1.90
2018-06-21T05:48:50.263Z,1.57
2018-06-21T05:51:18.420Z,1.42
2018-06-21T05:53:46.846Z,2.00
2018-06-21T05:56:15.356Z,1.80
2018-06-21T05:58:49.286Z,1.98
2018-06-21T06:01:17.800Z,1.90
2018-06-21T06:03:46.270Z,1.82
2018-06-21T06:06:14.717Z,1.57
2018-06-21T06:08:43.148Z,1.90
2018-06-21T06:11:11.597Z,1.40
2018-06-21T06:13:40.045Z,1.57
2018-06-21T06:16:08.544Z,1.50
2018-06-21T06:18:36.780Z,1.42
2018-06-21T06:21:05.261Z,1.55
2018-06-21T06:23:33.761Z,1.47
2018-06-21T06:26:02.152Z,1.50
2018-06-21T06:28:30.641Z,1.52
2018-06-21T06:30:59.329Z,1.35
2018-06-21T06:33:27.796Z,1.42
2018-06-21T06:35:57.092Z,1.20
2018-06-21T06:38:25.286Z,1.22
2018-06-21T06:40:53.957Z,1.62
2018-06-21T06:43:22.428Z,1.52
2018-06-21T06:45:53.852Z,1.10
2018-06-21T06:48:22.320Z,1.45
2018-06-21T06:50:50.739Z,1.80
2018-06-21T06:53:19.333Z,1.30
2018-06-21T06:55:47.819Z,1.35
2018-06-21T06:58:16.353Z,1.52
2018-06-21T07:00:44.768Z,1.22
2018-06-21T07:03:13.313Z,1.17
2018-06-21T07:05:41.735Z,1.12
2018-06-21T07:08:10.194Z,1.50
2018-06-21T07:10:38.772Z,1.30
2018-06-21T07:13:07.279Z,1.20
2018-06-21T07:15:35.718Z,1.42
2018-06-21T07:18:04.256Z,1.30
2018-06-21T07:20:32.698Z,1.15
2018-06-21T07:23:01.137Z,1.30
2018-06-21T07:25:29.543Z,1.07
2018-06-21T07:27:57.968Z,1.30
2018-06-21T07:30:26.378Z,1.50
2018-06-21T07:32:54.820Z,1.22
2018-06-21T07:35:23.234Z,1.20
2018-06-21T07:37:51.788Z,1.35
2018-06-21T07:40:20.253Z,1.40
2018-06-21T07:42:48.682Z,1.32
2018-06-21T07:45:17.191Z,1.37
2018-06-21T07:47:45.638Z,1.10
2018-06-21T07:50:14.153Z,1.67
2018-06-21T07:52:42.598Z,1.60
2018-06-21T07:55:11.050Z,1.45
2018-06-21T07:57:39.506Z,1.25
2018-06-21T08:00:07.957Z,1.30
2018-06-21T08:02:36.492Z,1.67
2018-06-21T08:05:04.978Z,1.50
2018-06-21T08:07:33.418Z,1.82
2018-06-21T08:10:01.883Z,1.32
2018-06-21T08:12:30.284Z,1.30
2018-06-21T08:14:58.744Z,1.37
2018-06-21T08:17:27.228Z,1.40
2018-06-21T08:19:55.660Z,1.40
2018-06-21T08:22:24.072Z,1.55
2018-06-21T08:24:52.531Z,1.40
2018-06-21T08:27:20.970Z,1.40
2018-06-21T08:29:49.428Z,1.65
2018-06-21T08:32:17.850Z,1.25
2018-06-21T08:34:46.281Z,1.52
2018-06-21T08:37:14.697Z,1.60
2018-06-21T08:39:43.144Z,1.45
2018-06-21T08:42:11.592Z,1.60
2018-06-21T08:44:40.082Z,1.72
2018-06-21T08:47:08.525Z,1.52
2018-06-21T08:49:37.041Z,1.40
2018-06-21T08:52:05.540Z,1.45
2018-06-21T08:54:33.936Z,1.52
2018-06-21T08:57:02.357Z,1.37
2018-06-21T08:59:30.795Z,1.40
2018-06-21T09:01:59.221Z,1.52
2018-06-21T09:04:27.683Z,1.75
2018-06-21T09:06:56.310Z,1.52
2018-06-21T09:09:24.888Z,1.47
2018-06-21T09:11:53.260Z,1.80
2018-06-21T09:14:21.833Z,1.90
2018-06-21T09:16:50.271Z,1.52
2018-06-21T09:19:18.720Z,1.57
2018-06-21T09:21:47.167Z,1.85
2018-06-21T09:24:15.642Z,1.70
2018-06-21T09:26:43.742Z,1.60
2018-06-21T09:29:12.328Z,1.82
2018-06-21T09:31:40.785Z,1.65
2018-06-21T09:34:09.236Z,2.00
2018-06-21T09:36:38.977Z,1.90
2018-06-21T09:39:14.359Z,1.25
2018-06-21T09:42:47.615Z,1.60
2018-06-21T09:45:21.556Z,1.60
2018-06-21T09:47:55.239Z,1.70
2018-06-21T09:50:23.681Z,1.92
2018-06-21T09:52:52.084Z,1.90
2018-06-21T09:55:20.589Z,2.27
2018-06-21T09:57:49.145Z,1.77
2018-06-21T10:00:22.768Z,1.90
2018-06-21T10:02:51.214Z,1.42
2018-06-21T10:05:19.660Z,2.17
2018-06-21T10:07:48.072Z,1.62
2018-06-21T10:10:16.520Z,2.52
2018-06-21T10:12:46.097Z,1.60
2018-06-21T10:15:15.856Z,1.90
2018-06-21T10:17:44.294Z,1.72
2018-06-21T10:20:12.744Z,2.10
2018-06-21T10:22:41.184Z,2.20
2018-06-21T10:25:09.664Z,2.17
2018-06-21T10:27:38.118Z,2.00
2018-06-21T10:30:06.584Z,1.95
2018-06-21T10:32:34.979Z,2.52
2018-06-21T10:35:03.525Z,2.00
2018-06-21T10:37:31.968Z,2.20
2018-06-21T10:40:00.417Z,1.92
2018-06-21T10:42:28.869Z,1.87
2018-06-21T10:44:57.345Z,2.00
2018-06-21T10:47:25.762Z,1.95
2018-06-21T10:49:54.228Z,2.22
2018-06-21T10:52:22.657Z,2.33
2018-06-21T10:54:51.092Z,2.08
2018-06-21T10:57:19.557Z,1.90
2018-06-21T10:59:47.992Z,2.17
2018-06-21T11:02:16.127Z,1.77
2018-06-21T11:04:44.684Z,1.82
2018-06-21T11:07:13.180Z,2.20
2018-06-21T11:09:41.604Z,1.70
2018-06-21T11:12:10.054Z,2.52
2018-06-21T11:14:38.789Z,2.10
2018-06-21T11:17:07.234Z,1.92
2018-06-21T11:19:35.922Z,2.40
2018-06-21T11:22:04.365Z,2.37
2018-06-21T11:24:32.993Z,2.17
2018-06-21T11:27:01.457Z,1.98
2018-06-21T11:29:29.877Z,2.02
2018-06-21T11:31:58.324Z,1.95
2018-06-21T11:34:27.053Z,1.80
2018-06-21T11:36:55.556Z,1.90
2018-06-21T11:39:23.968Z,2.12
2018-06-21T11:41:52.570Z,2.10
2018-06-21T11:44:21.197Z,1.85
2018-06-21T11:46:49.709Z,2.33
2018-06-21T11:49:18.085Z,2.12
2018-06-21T11:51:46.553Z,2.20
2018-06-21T11:54:14.982Z,2.15
2018-06-21T11:56:43.508Z,2.20
2018-06-21T11:59:11.921Z,3.02
2018-06-21T12:01:40.450Z,2.10
2018-06-21T12:04:08.998Z,1.98
2018-06-21T12:06:37.466Z,2.00
2018-06-21T12:09:08.246Z,2.00
2018-06-21T12:11:36.686Z,2.00
2018-06-21T12:14:05.750Z,2.22
2018-06-21T12:16:34.236Z,1.70
2018-06-21T12:19:02.860Z,1.92
2018-06-21T12:21:31.376Z,1.85
2018-06-21T12:23:59.751Z,1.95
2018-06-21T12:26:28.586Z,1.80
2018-06-21T12:28:57.025Z,2.00
2018-06-21T12:31:25.461Z,2.10
2018-06-21T12:33:54.232Z,2.15
2018-06-21T12:36:22.669Z,2.05
2018-06-21T12:38:51.111Z,1.82
2018-06-21T12:41:19.525Z,1.90
2018-06-21T12:43:48.056Z,1.98
2018-06-21T12:46:16.494Z,1.98
2018-06-21T12:48:45.145Z,2.05
2018-06-21T12:51:13.591Z,2.08
2018-06-21T12:53:42.129Z,2.12
2018-06-21T12:56:10.553Z,1.67
2018-06-21T12:58:39.006Z,1.80
2018-06-21T13:01:07.421Z,2.00
2018-06-21T13:03:36.010Z,1.82
2018-06-21T13:06:04.788Z,1.95
2018-06-21T13:08:38.425Z,1.77
2018-06-21T13:12:21.549Z,2.05
2018-06-21T13:14:49.964Z,1.82
2018-06-21T13:17:18.480Z,1.42
2018-06-21T13:19:47.350Z,1.95
2018-06-21T13:22:15.792Z,1.92
2018-06-21T13:24:44.660Z,2.10
2018-06-21T13:27:13.168Z,2.05
2018-06-21T13:29:41.870Z,2.10
2018-06-21T13:32:10.462Z,2.17
2018-06-21T13:34:39.368Z,2.27
2018-06-21T13:37:08.489Z,2.33
2018-06-21T13:39:36.929Z,1.95
2018-06-21T13:42:05.375Z,2.15
2018-06-21T13:44:33.837Z,1.52
2018-06-21T13:47:03.108Z,1.40
2018-06-21T13:49:31.640Z,1.55
2018-06-21T13:52:00.063Z,1.72
2018-06-21T13:54:29.024Z,1.57
2018-06-21T13:56:57.496Z,1.10
2018-06-21T13:59:25.963Z,0.80
2018-06-21T14:01:54.400Z,1.00
2018-06-21T14:04:22.909Z,1.00
2018-06-21T14:06:51.373Z,1.22
2018-06-21T14:09:19.910Z,1.98
2018-06-21T14:11:48.375Z,1.50
2018-06-21T14:14:16.872Z,1.22
2018-06-21T14:16:45.288Z,1.60
2018-06-21T14:19:13.790Z,1.17
2018-06-21T14:21:42.214Z,1.30
2018-06-21T14:24:13.096Z,1.75
2018-06-21T14:26:41.992Z,1.42
2018-06-21T14:29:10.473Z,1.55
2018-06-21T14:31:38.917Z,1.30
2018-06-21T14:34:07.417Z,1.45
2018-06-21T14:36:35.854Z,1.77
2018-06-21T14:39:06.688Z,1.42
2018-06-21T14:41:35.232Z,1.45
2018-06-21T14:44:03.713Z,1.30
2018-06-21T14:46:32.151Z,1.67
2018-06-21T14:49:00.687Z,1.50
2018-06-21T14:51:29.059Z,1.50
2018-06-21T14:53:57.536Z,2.00
2018-06-21T14:56:26.089Z,1.90
2018-06-21T14:58:54.209Z,1.87
2018-06-21T15:01:22.677Z,2.02
2018-06-21T15:03:51.149Z,1.90
2018-06-21T15:06:19.632Z,1.67
2018-06-21T15:08:48.055Z,1.82
2018-06-21T15:11:16.521Z,1.90
2018-06-21T15:13:49.259Z,2.42
2018-06-21T15:16:19.664Z,1.72
2018-06-21T15:18:48.066Z,2.10
2018-06-21T15:21:17.239Z,2.12
2018-06-21T15:23:45.996Z,2.17
2018-06-21T15:26:14.434Z,1.87
2018-06-21T15:28:43.469Z,1.87
2018-06-21T15:31:12.034Z,1.87
2018-06-21T15:33:40.455Z,2.27
2018-06-21T15:36:09.026Z,2.20
2018-06-21T15:38:37.450Z,1.95
2018-06-21T15:41:06.015Z,1.82
2018-06-21T15:43:34.648Z,1.67
2018-06-21T15:46:03.155Z,2.22
2018-06-21T15:48:31.593Z,1.95
2018-06-21T15:51:00.114Z,2.17
2018-06-21T15:53:28.952Z,2.00
2018-06-21T15:55:57.569Z,1.90
2018-06-21T15:58:26.227Z,1.82
2018-06-21T16:00:54.690Z,1.95
2018-06-21T16:03:23.509Z,1.90
2018-06-21T16:05:52.177Z,1.70
2018-06-21T16:08:20.682Z,1.77
2018-06-21T16:10:49.164Z,1.60
2018-06-21T16:13:18.256Z,1.90
2018-06-21T16:15:48.373Z,1.65
2018-06-21T16:18:16.948Z,1.77
2018-06-21T16:20:45.493Z,2.02
2018-06-21T16:23:14.100Z,1.30
2018-06-21T16:25:42.537Z,1.60
2018-06-21T16:28:11.032Z,1.60
2018-06-21T16:30:39.679Z,1.57
2018-06-21T16:33:08.430Z,1.42
2018-06-21T16:35:36.916Z,1.77
2018-06-21T16:38:05.529Z,1.27
2018-06-21T16:40:33.923Z,1.60
2018-06-21T16:43:02.395Z,1.77
2018-06-21T16:45:30.814Z,1.92
2018-06-21T16:47:59.272Z,1.77
2018-06-21T16:50:28.009Z,1.20
2018-06-21T16:52:56.452Z,1.20
2018-06-21T16:55:24.880Z,1.82
2018-06-21T16:57:53.347Z,1.10
2018-06-21T17:00:21.772Z,1.52
2018-06-21T17:02:50.252Z,1.85
2018-06-21T17:05:18.689Z,1.67
2018-06-21T17:07:47.209Z,1.40
2018-06-21T17:10:15.677Z,1.60
2018-06-21T17:12:44.114Z,1.32
2018-06-21T17:15:12.528Z,1.50
2018-06-21T17:17:40.673Z,1.60
2018-06-21T17:20:09.179Z,1.22
2018-06-21T17:22:37.824Z,1.60
2018-06-21T17:25:06.646Z,1.67
2018-06-21T17:27:34.800Z,1.50
2018-06-21T17:30:03.363Z,1.47
2018-06-21T17:32:32.475Z,1.35
2018-06-21T17:35:03.350Z,1.40
2018-06-21T17:37:31.789Z,1.50
2018-06-21T17:40:00.270Z,1.32
2018-06-21T17:42:28.692Z,1.50
2018-06-21T17:44:57.220Z,1.60
2018-06-21T17:47:25.629Z,1.40
2018-06-21T17:49:54.100Z,1.37
2018-06-21T17:52:22.502Z,1.50
2018-06-21T17:54:50.954Z,1.32
2018-06-21T17:57:19.376Z,1.42
2018-06-21T17:59:47.856Z,1.67
2018-06-21T18:02:16.264Z,1.22
2018-06-21T18:04:44.856Z,1.65
2018-06-21T18:07:13.305Z,1.40
2018-06-21T18:09:41.888Z,1.47
2018-06-21T18:12:10.297Z,1.32
2018-06-21T18:14:38.757Z,1.77
2018-06-21T18:17:07.185Z,1.35
2018-06-21T18:19:35.710Z,1.90
2018-06-21T18:22:04.163Z,1.52
2018-06-21T18:24:32.612Z,1.60
2018-06-21T18:27:01.047Z,1.60
2018-06-21T18:29:29.493Z,1.40
2018-06-21T18:31:57.953Z,1.37
2018-06-21T18:34:26.471Z,1.40
2018-06-21T18:36:54.971Z,1.45
2018-06-21T18:39:23.490Z,1.22
2018-06-21T18:41:51.913Z,1.10
2018-06-21T18:44:20.391Z,1.30
2018-06-21T18:46:48.493Z,1.62
2018-06-21T18:49:17.076Z,1.75
2018-06-21T18:51:45.568Z,1.57
2018-06-21T18:54:14.038Z,1.80
2018-06-21T18:56:42.496Z,1.60
2018-06-21T18:59:10.938Z,1.92
2018-06-21T19:01:39.421Z,1.95
2018-06-21T19:04:07.881Z,2.08
2018-06-21T19:06:41.712Z,1.92
2018-06-21T19:09:15.496Z,1.87
2018-06-21T19:11:49.322Z,1.80
2018-06-21T19:14:17.744Z,1.60
2018-06-21T19:16:46.372Z,1.57
2018-06-21T19:19:14.813Z,2.27
2018-06-21T19:21:43.441Z,1.80
2018-06-21T19:24:11.869Z,1.87
2018-06-21T19:26:40.326Z,1.52
2018-06-21T19:29:08.761Z,1.40
2018-06-21T19:31:36.909Z,1.30
2018-06-21T19:34:05.368Z,1.67
2018-06-21T19:36:33.905Z,1.50
2018-06-21T19:39:02.409Z,1.37
2018-06-21T19:41:31.041Z,1.37
2018-06-21T19:43:59.482Z,1.32
2018-06-21T19:46:27.938Z,1.45
2018-06-21T19:48:56.385Z,1.20
2018-06-21T19:51:24.610Z,1.12
2018-06-21T19:53:53.005Z,1.20
2018-06-21T19:56:21.650Z,1.17
2018-06-21T19:58:50.101Z,1.52
2018-06-21T20:01:18.815Z,1.40
2018-06-21T20:03:47.666Z,1.30
2018-06-21T20:06:16.275Z,1.02
2018-06-21T20:08:44.696Z,1.22
2018-06-21T20:11:18.369Z,1.02
2018-06-21T20:13:48.133Z,1.10
2018-06-21T20:16:16.752Z,1.05
2018-06-21T20:18:45.215Z,1.20
2018-06-21T20:21:14.797Z,1.25
2018-06-21T20:27:17.088Z,1.12
2018-06-21T20:29:45.247Z,1.30
2018-06-21T20:32:13.725Z,1.10
2018-06-21T20:34:42.152Z,1.30
2018-06-21T20:37:15.946Z,1.30
2018-06-21T20:39:44.422Z,1.35
2018-06-21T20:42:13.668Z,1.77
2018-06-21T20:44:42.092Z,1.90
2018-06-21T20:47:10.572Z,1.60
2018-06-21T20:49:39.053Z,2.27
2018-06-21T20:52:11.833Z,2.20
2018-06-21T20:54:40.282Z,2.50
2018-06-21T20:57:08.692Z,2.05
2018-06-21T20:59:37.259Z,2.45
2018-06-21T21:02:05.740Z,2.75
2018-06-21T21:04:43.365Z,2.45
2018-06-21T21:07:11.976Z,2.50
2018-06-21T21:09:40.433Z,2.75
2018-06-21T21:12:08.837Z,2.90
2018-06-21T21:14:37.288Z,2.80
2018-06-21T21:17:06.068Z,3.08
2018-06-21T21:19:34.519Z,2.98
2018-06-21T21:22:02.945Z,2.90
2018-06-21T21:24:31.384Z,2.60
2018-06-21T21:26:59.802Z,2.60
2018-06-21T21:29:28.281Z,2.83
2018-06-21T21:31:56.395Z,3.45
2018-06-21T21:34:24.933Z,2.67
2018-06-21T21:36:53.349Z,2.75
2018-06-21T21:39:21.793Z,2.67
2018-06-21T21:41:49.908Z,2.62
2018-06-21T21:44:18.467Z,2.70
2018-06-21T21:46:46.961Z,2.90
2018-06-21T21:49:15.419Z,2.25
2018-06-21T21:51:43.829Z,2.02
2018-06-21T21:54:12.277Z,2.05
2018-06-21T21:56:40.667Z,1.77
2018-06-21T21:59:09.112Z,1.92
2018-06-21T22:01:37.518Z,1.67
2018-06-21T22:04:06.083Z,1.25
2018-06-21T22:06:34.526Z,1.40
2018-06-21T22:09:03.213Z,1.00
2018-06-21T22:11:31.649Z,1.17
2018-06-21T22:14:04.080Z,0.82
2018-06-21T22:16:33.977Z,0.85
2018-06-21T22:19:02.483Z,0.70
2018-06-21T22:21:30.953Z,0.70
2018-06-21T22:23:59.387Z,0.90
2018-06-21T22:26:28.173Z,0.70
2018-06-21T22:28:56.623Z,0.60
2018-06-21T22:31:25.026Z,0.70
2018-06-21T22:33:53.485Z,0.40
2018-06-21T22:36:21.970Z,0.70
2018-06-21T22:38:50.479Z,0.72
2018-06-21T22:41:18.929Z,0.50
2018-06-21T22:43:47.395Z,0.70
2018-06-21T22:46:15.810Z,0.70
2018-06-21T22:48:44.261Z,0.55
2018-06-21T22:51:12.673Z,0.55
2018-06-21T22:53:41.082Z,0.50
2018-06-21T22:56:09.532Z,0.60
2018-06-21T22:58:37.929Z,0.68
2018-06-21T23:01:06.402Z,1.30
2018-06-21T23:03:34.846Z,0.45
2018-06-21T23:06:03.296Z,0.50
2018-06-21T23:08:31.704Z,0.50
2018-06-21T23:11:00.152Z,0.50
2018-06-21T23:13:28.576Z,0.60
2018-06-21T23:15:57.017Z,0.42
2018-06-21T23:18:36.740Z,0.62
2018-06-21T23:21:05.196Z,0.68
2018-06-21T23:23:33.625Z,0.50
2018-06-21T23:26:02.083Z,0.50
2018-06-21T23:28:30.560Z,0.50
2018-06-21T23:30:59.028Z,0.50
2018-06-21T23:33:27.495Z,0.47
2018-06-21T23:35:55.960Z,0.40
2018-06-21T23:38:24.374Z,0.50
2018-06-21T23:40:53.103Z,0.40
2018-06-21T23:43:21.648Z,0.40
2018-06-21T23:45:49.788Z,0.35
2018-06-21T23:48:18.233Z,0.40
2018-06-21T23:50:46.815Z,0.50
2018-06-21T23:53:15.241Z,0.55
2018-06-21T23:55:43.706Z,0.72
2018-06-21T23:58:12.191Z,0.50
